Time,TemperatureF,DewpointF,PressureIn,WindDirection,WindDirectionDegrees,WindSpeedMPH,WindSpeedGustMPH,Humidity,HourlyPrecipIn,Conditions,Clouds,dailyrainin,SoftwareType,DateUTC
2013-05-16 00:01:00,53.6,51.6,29.65,West,270,0.0,2.0,93,0.00,,,0.00,meteohub,2013-05-16 04:01:00,
2013-05-16 00:02:00,53.6,51.6,29.65,West,270,1.0,2.0,93,0.00,,,0.00,meteohub,2013-05-16 04:02:00,
2013-05-16 00:06:00,53.6,51.6,29.65,West,270,1.0,2.0,93,0.00,,,0.00,meteohub,2013-05-16 04:06:00,
2013-05-16 00:09:00,53.6,51.6,29.65,West,270,0.0,2.0,93,0.00,,,0.00,meteohub,2013-05-16 04:09:00,
2013-05-16 00:14:00,53.6,52.0,29.65,SE,135,0.0,1.0,94,0.00,,,0.00,meteohub,2013-05-16 04:14:00,
2013-05-16 00:19:00,53.6,52.0,29.65,NW,315,0.0,2.0,94,0.00,,,0.00,meteohub,2013-05-16 04:19:00,
2013-05-16 00:24:00,53.4,52.0,29.65,West,270,0.0,2.0,95,0.00,,,0.00,meteohub,2013-05-16 04:24:00,
2013-05-16 00:29:00,53.2,51.8,29.65,West,270,0.0,2.0,95,0.00,,,0.00,meteohub,2013-05-16 04:29:00,
2013-05-16 00:34:00,53.1,51.6,29.65,West,270,0.0,1.0,95,0.00,,,0.00,meteohub,2013-05-16 04:34:00,
2013-05-16 00:39:00,52.9,51.4,29.65,North,0,0.0,0.0,95,0.00,,,0.00,meteohub,2013-05-16 04:39:00,
2013-05-16 00:44:00,52.9,51.4,29.65,North,-999,-999.0,0.0,95,0.00,,,0.00,meteohub,2013-05-16 04:44:00,
2013-05-16 00:49:00,52.7,51.3,29.65,North,-999,-999.0,0.0,95,0.00,,,0.00,meteohub,2013-05-16 04:49:00,
2013-05-16 00:55:00,52.5,51.1,29.64,NW,315,1.0,0.0,95,0.00,,,0.00,meteohub,2013-05-16 04:55:00,
2013-05-16 01:00:00,52.3,51.3,29.64,West,270,1.0,1.0,96,0.00,,,0.00,meteohub,2013-05-16 05:00:00,
2013-05-16 01:05:00,52.3,51.3,29.64,NW,315,0.0,1.0,96,0.00,,,0.00,meteohub,2013-05-16 05:05:00,
2013-05-16 01:10:00,52.3,51.3,29.63,South,180,0.0,1.0,96,0.00,,,0.00,meteohub,2013-05-16 05:10:00,
2013-05-16 01:15:00,52.2,51.3,29.64,West,270,0.0,1.0,97,0.00,,,0.00,meteohub,2013-05-16 05:15:00,
2013-05-16 01:20:00,52.2,51.3,29.64,West,270,1.0,1.0,97,0.00,,,0.00,meteohub,2013-05-16 05:20:00,
2013-05-16 01:25:00,52.2,51.3,29.64,North,-999,-999.0,1.0,97,0.00,,,0.00,meteohub,2013-05-16 05:25:00,
2013-05-16 01:30:00,52.2,51.3,29.64,NW,315,1.0,1.0,97,0.00,,,0.00,meteohub,2013-05-16 05:30:00,
2013-05-16 01:35:00,51.8,51.3,29.63,North,-999,-999.0,1.0,98,0.00,,,0.00,meteohub,2013-05-16 05:35:00,
2013-05-16 01:40:00,51.8,51.3,29.64,North,-999,-999.0,1.0,98,0.00,,,0.00,meteohub,2013-05-16 05:40:00,
2013-05-16 01:45:00,51.8,51.3,29.64,West,270,1.0,1.0,98,0.00,,,0.00,meteohub,2013-05-16 05:45:00,
2013-05-16 01:50:00,51.6,51.3,29.64,North,-999,-999.0,1.0,99,0.00,,,0.00,meteohub,2013-05-16 05:50:00,
2013-05-16 01:55:00,51.4,51.1,29.64,North,-999,-999.0,1.0,99,0.00,,,0.00,meteohub,2013-05-16 05:55:00,
2013-05-16 02:00:00,51.3,50.9,29.64,North,-999,-999.0,-999.0,99,0.00,,,0.00,meteohub,2013-05-16 06:00:00,
2013-05-16 02:05:00,51.1,50.7,29.63,North,-999,-999.0,-999.0,99,0.00,,,0.00,meteohub,2013-05-16 06:05:00,
2013-05-16 02:10:00,51.3,50.9,29.64,West,270,0.0,0.0,99,0.00,,,0.00,meteohub,2013-05-16 06:10:00,
2013-05-16 02:16:00,51.1,50.7,29.63,West,270,0.0,0.0,99,0.00,,,0.00,meteohub,2013-05-16 06:16:00,
2013-05-16 02:21:00,51.1,50.7,29.63,West,270,0.0,1.0,99,0.00,,,0.00,meteohub,2013-05-16 06:21:00,
2013-05-16 02:26:00,51.1,50.7,29.63,West,270,0.0,1.0,99,0.00,,,0.00,meteohub,2013-05-16 06:26:00,
2013-05-16 02:31:00,50.9,50.5,29.63,West,270,0.0,1.0,99,0.00,,,0.00,meteohub,2013-05-16 06:31:00,
2013-05-16 02:36:00,50.9,50.5,29.63,West,270,0.0,0.0,99,0.00,,,0.00,meteohub,2013-05-16 06:36:00,
2013-05-16 02:41:00,50.7,50.4,29.63,West,270,1.0,0.0,99,0.00,,,0.00,meteohub,2013-05-16 06:41:00,
2013-05-16 02:46:00,50.9,50.5,29.63,East,90,0.0,2.0,99,0.00,,,0.00,meteohub,2013-05-16 06:46:00,
2013-05-16 02:51:00,50.9,50.5,29.63,West,270,0.0,3.0,99,0.00,,,0.00,meteohub,2013-05-16 06:51:00,
2013-05-16 02:56:00,50.7,50.4,29.63,West,270,1.0,3.0,99,0.00,,,0.00,meteohub,2013-05-16 06:56:00,
2013-05-16 03:01:00,50.9,50.5,29.63,West,270,1.0,3.0,99,0.00,,,0.00,meteohub,2013-05-16 07:01:00,
2013-05-16 03:06:00,51.1,50.7,29.63,West,270,0.0,2.0,99,0.00,,,0.00,meteohub,2013-05-16 07:06:00,
2013-05-16 03:11:00,51.1,50.7,29.63,West,270,0.0,2.0,99,0.00,,,0.00,meteohub,2013-05-16 07:11:00,
2013-05-16 03:16:00,51.1,50.7,29.62,West,270,0.0,2.0,99,0.00,,,0.00,meteohub,2013-05-16 07:16:00,
2013-05-16 03:21:00,51.1,50.7,29.62,West,270,0.0,2.0,99,0.00,,,0.00,meteohub,2013-05-16 07:21:00,
2013-05-16 03:26:00,50.9,50.5,29.62,West,270,0.0,0.0,99,0.00,,,0.00,meteohub,2013-05-16 07:26:00,
2013-05-16 03:32:00,50.9,50.5,29.62,West,270,0.0,0.0,99,0.00,,,0.00,meteohub,2013-05-16 07:32:00,
2013-05-16 03:37:00,50.7,50.4,29.62,West,270,0.0,0.0,99,0.00,,,0.00,meteohub,2013-05-16 07:37:00,
2013-05-16 03:42:00,50.7,50.4,29.62,West,270,0.0,0.0,99,0.00,,,0.00,meteohub,2013-05-16 07:42:00,
2013-05-16 03:47:00,50.7,50.4,29.63,West,270,0.0,0.0,99,0.00,,,0.00,meteohub,2013-05-16 07:47:00,
2013-05-16 03:52:00,50.7,50.4,29.63,West,270,0.0,0.0,99,0.00,,,0.00,meteohub,2013-05-16 07:52:00,
2013-05-16 03:57:00,50.5,50.2,29.62,West,270,0.0,0.0,99,0.00,,,0.00,meteohub,2013-05-16 07:57:00,
2013-05-16 04:02:00,50.5,50.2,29.62,West,270,0.0,0.0,99,0.00,,,0.00,meteohub,2013-05-16 08:02:00,
2013-05-16 04:07:00,50.5,50.2,29.62,West,270,0.0,0.0,99,0.00,,,0.00,meteohub,2013-05-16 08:07:00,
2013-05-16 04:12:00,50.4,50.0,29.62,West,270,0.0,0.0,99,0.00,,,0.00,meteohub,2013-05-16 08:12:00,
2013-05-16 04:17:00,50.2,49.8,29.62,West,270,0.0,0.0,99,0.00,,,0.00,meteohub,2013-05-16 08:17:00,
2013-05-16 04:22:00,50.0,49.6,29.62,West,270,0.0,0.0,99,0.00,,,0.00,meteohub,2013-05-16 08:22:00,
2013-05-16 04:27:00,50.0,49.6,29.62,West,270,0.0,0.0,99,0.00,,,0.00,meteohub,2013-05-16 08:27:00,
2013-05-16 04:32:00,50.0,49.6,29.62,West,270,0.0,0.0,99,0.00,,,0.00,meteohub,2013-05-16 08:32:00,
2013-05-16 04:37:00,50.0,49.6,29.62,West,270,0.0,0.0,99,0.00,,,0.00,meteohub,2013-05-16 08:37:00,
2013-05-16 04:42:00,49.8,49.5,29.63,West,270,0.0,0.0,99,0.00,,,0.00,meteohub,2013-05-16 08:42:00,
2013-05-16 04:47:00,49.8,49.5,29.63,West,270,0.0,0.0,99,0.00,,,0.00,meteohub,2013-05-16 08:47:00,
2013-05-16 04:52:00,49.8,49.5,29.63,West,270,0.0,0.0,99,0.00,,,0.00,meteohub,2013-05-16 08:52:00,
2013-05-16 04:57:00,49.8,49.5,29.63,West,270,0.0,0.0,99,0.00,,,0.00,meteohub,2013-05-16 08:57:00,
2013-05-16 05:02:00,49.8,49.5,29.63,West,270,0.0,0.0,99,0.00,,,0.00,meteohub,2013-05-16 09:02:00,
2013-05-16 05:07:00,49.8,49.5,29.62,West,270,0.0,0.0,99,0.00,,,0.00,meteohub,2013-05-16 09:07:00,
2013-05-16 05:12:00,49.8,49.5,29.63,West,270,0.0,0.0,99,0.00,,,0.00,meteohub,2013-05-16 09:12:00,
2013-05-16 05:17:00,49.8,49.5,29.63,West,270,0.0,0.0,99,0.00,,,0.00,meteohub,2013-05-16 09:17:00,
2013-05-16 05:22:00,49.8,49.5,29.63,West,270,0.0,0.0,99,0.00,,,0.00,meteohub,2013-05-16 09:22:00,
2013-05-16 05:27:00,49.6,49.5,29.64,West,270,0.0,0.0,99,0.00,,,0.00,meteohub,2013-05-16 09:27:00,
2013-05-16 05:32:00,49.5,49.3,29.64,West,270,0.0,0.0,99,0.00,,,0.00,meteohub,2013-05-16 09:32:00,
2013-05-16 05:37:00,49.3,49.1,29.64,West,270,0.0,0.0,99,0.00,,,0.00,meteohub,2013-05-16 09:37:00,
2013-05-16 05:42:00,49.1,48.9,29.65,West,270,0.0,0.0,99,0.00,,,0.00,meteohub,2013-05-16 09:42:00,
2013-05-16 05:47:00,49.1,48.9,29.64,West,270,0.0,0.0,99,0.00,,,0.00,meteohub,2013-05-16 09:47:00,
2013-05-16 05:52:00,49.1,48.9,29.65,West,270,0.0,0.0,99,0.00,,,0.00,meteohub,2013-05-16 09:52:00,
2013-05-16 05:57:00,49.3,49.1,29.65,West,270,0.0,0.0,99,0.00,,,0.00,meteohub,2013-05-16 09:57:00,
2013-05-16 06:02:00,49.3,49.1,29.65,West,270,0.0,0.0,99,0.00,,,0.00,meteohub,2013-05-16 10:02:00,
2013-05-16 06:07:00,49.5,49.3,29.65,West,270,0.0,0.0,99,0.00,,,0.00,meteohub,2013-05-16 10:07:00,
2013-05-16 06:12:00,49.6,49.5,29.65,West,270,0.0,0.0,99,0.00,,,0.00,meteohub,2013-05-16 10:12:00,
2013-05-16 06:17:00,49.8,49.5,29.64,West,270,0.0,0.0,99,0.00,,,0.00,meteohub,2013-05-16 10:17:00,
2013-05-16 06:22:00,50.0,49.6,29.64,West,270,0.0,0.0,99,0.00,,,0.00,meteohub,2013-05-16 10:22:00,
2013-05-16 06:27:00,50.2,49.8,29.65,West,270,0.0,0.0,99,0.00,,,0.00,meteohub,2013-05-16 10:27:00,
2013-05-16 06:32:00,50.7,50.4,29.65,West,270,0.0,0.0,99,0.00,,,0.00,meteohub,2013-05-16 10:32:00,
2013-05-16 06:37:00,50.9,50.5,29.65,West,270,0.0,0.0,99,0.00,,,0.00,meteohub,2013-05-16 10:37:00,
2013-05-16 06:42:00,51.3,50.9,29.65,West,270,0.0,0.0,99,0.00,,,0.00,meteohub,2013-05-16 10:42:00,
2013-05-16 06:47:00,51.6,51.3,29.65,West,270,0.0,0.0,99,0.00,,,0.00,meteohub,2013-05-16 10:47:00,
2013-05-16 06:52:00,52.0,51.4,29.65,West,270,0.0,0.0,98,0.00,,,0.00,meteohub,2013-05-16 10:52:00,
2013-05-16 06:57:00,52.5,52.0,29.65,West,270,0.0,0.0,98,0.00,,,0.00,meteohub,2013-05-16 10:57:00,
2013-05-16 07:02:00,53.1,52.5,29.65,West,270,0.0,0.0,98,0.00,,,0.00,meteohub,2013-05-16 11:02:00,
2013-05-16 07:07:00,53.6,52.7,29.65,West,270,0.0,0.0,97,0.00,,,0.00,meteohub,2013-05-16 11:07:00,
2013-05-16 07:12:00,54.3,53.4,29.66,West,270,0.0,0.0,97,0.00,,,0.00,meteohub,2013-05-16 11:12:00,
2013-05-16 07:17:00,55.0,54.1,29.65,West,270,0.0,0.0,97,0.00,,,0.00,meteohub,2013-05-16 11:17:00,
2013-05-16 07:22:00,55.8,54.7,29.66,West,270,0.0,0.0,96,0.00,,,0.00,meteohub,2013-05-16 11:22:00,
2013-05-16 07:27:00,56.8,55.2,29.66,West,270,0.0,0.0,94,0.00,,,0.00,meteohub,2013-05-16 11:27:00,
2013-05-16 07:32:00,57.7,55.2,29.66,West,270,0.0,0.0,91,0.00,,,0.00,meteohub,2013-05-16 11:32:00,
2013-05-16 07:37:00,58.6,55.0,29.66,West,270,0.0,0.0,88,0.00,,,0.00,meteohub,2013-05-16 11:37:00,
2013-05-16 07:42:00,59.5,54.0,29.66,NW,315,0.0,0.0,82,0.00,,,0.00,meteohub,2013-05-16 11:42:00,
2013-05-16 07:47:00,60.8,54.3,29.66,NW,315,0.0,1.0,79,0.00,,,0.00,meteohub,2013-05-16 11:47:00,
2013-05-16 07:52:00,62.4,55.0,29.66,North,0,0.0,1.0,77,0.00,,,0.00,meteohub,2013-05-16 11:52:00,
2013-05-16 07:57:00,63.5,53.6,29.66,NW,315,0.0,1.0,70,0.00,,,0.00,meteohub,2013-05-16 11:57:00,
2013-05-16 08:02:00,64.2,52.7,29.66,North,0,0.0,1.0,66,0.00,,,0.00,meteohub,2013-05-16 12:02:00,
2013-05-16 08:07:00,64.6,51.3,29.66,West,270,0.0,1.0,62,0.00,,,0.00,meteohub,2013-05-16 12:07:00,
2013-05-16 08:12:00,64.9,50.7,29.66,NW,315,2.0,2.0,60,0.00,,,0.00,meteohub,2013-05-16 12:12:00,
2013-05-16 08:17:00,65.5,49.8,29.66,North,0,0.0,2.0,57,0.00,,,0.00,meteohub,2013-05-16 12:17:00,
2013-05-16 08:22:00,65.7,50.5,29.67,NW,315,0.0,2.0,58,0.00,,,0.00,meteohub,2013-05-16 12:22:00,
2013-05-16 08:27:00,65.8,49.6,29.68,North,0,0.0,2.0,56,0.00,,,0.00,meteohub,2013-05-16 12:27:00,
2013-05-16 08:32:00,66.7,50.0,29.68,NNE,23,0.0,1.0,55,0.00,,,0.00,meteohub,2013-05-16 12:32:00,
2013-05-16 08:37:00,67.6,50.4,29.68,North,0,0.0,1.0,54,0.00,,,0.00,meteohub,2013-05-16 12:37:00,
2013-05-16 08:42:00,68.0,49.6,29.68,North,0,0.0,1.0,52,0.00,,,0.00,meteohub,2013-05-16 12:42:00,
2013-05-16 08:47:00,68.0,49.3,29.67,NW,315,0.0,0.0,51,0.00,,,0.00,meteohub,2013-05-16 12:47:00,
2013-05-16 08:52:00,68.2,48.9,29.67,North,0,0.0,1.0,50,0.00,,,0.00,meteohub,2013-05-16 12:52:00,
2013-05-16 08:57:00,68.4,47.3,29.67,North,0,0.0,1.0,47,0.00,,,0.00,meteohub,2013-05-16 12:57:00,
2013-05-16 09:02:00,68.7,47.1,29.67,North,0,0.0,1.0,46,0.00,,,0.00,meteohub,2013-05-16 13:02:00,
2013-05-16 09:07:00,69.1,46.8,29.68,North,0,2.0,2.0,45,0.00,,,0.00,meteohub,2013-05-16 13:07:00,
2013-05-16 09:12:00,69.3,46.4,29.67,NE,45,2.0,2.0,44,0.00,,,0.00,meteohub,2013-05-16 13:12:00,
2013-05-16 09:17:00,69.4,46.0,29.67,North,0,1.0,2.0,43,0.00,,,0.00,meteohub,2013-05-16 13:17:00,
2013-05-16 09:22:00,69.6,46.2,29.67,NE,45,1.0,2.0,43,0.00,,,0.00,meteohub,2013-05-16 13:22:00,
2013-05-16 09:27:00,69.6,46.2,29.67,North,0,2.0,2.0,43,0.00,,,0.00,meteohub,2013-05-16 13:27:00,
2013-05-16 09:32:00,69.8,45.7,29.67,NE,45,2.0,2.0,42,0.00,,,0.00,meteohub,2013-05-16 13:32:00,
2013-05-16 09:37:00,70.3,45.5,29.68,North,0,0.0,2.0,41,0.00,,,0.00,meteohub,2013-05-16 13:37:00,
2013-05-16 09:42:00,70.9,46.0,29.68,North,0,2.0,2.0,41,0.00,,,0.00,meteohub,2013-05-16 13:42:00,
2013-05-16 09:47:00,71.2,45.7,29.68,NW,315,0.0,2.0,40,0.00,,,0.00,meteohub,2013-05-16 13:47:00,
2013-05-16 09:52:00,72.1,45.9,29.67,West,270,0.0,2.0,39,0.00,,,0.00,meteohub,2013-05-16 13:52:00,
2013-05-16 09:57:00,72.9,46.4,29.68,North,0,2.0,2.0,39,0.00,,,0.00,meteohub,2013-05-16 13:57:00,
2013-05-16 10:02:00,73.6,46.4,29.68,East,90,1.0,2.0,38,0.00,,,0.00,meteohub,2013-05-16 14:02:00,
2013-05-16 10:07:00,73.8,45.1,29.68,NE,45,1.0,2.0,36,0.00,,,0.00,meteohub,2013-05-16 14:07:00,
2013-05-16 10:12:00,74.3,46.4,29.68,NW,315,1.0,2.0,37,0.00,,,0.00,meteohub,2013-05-16 14:12:00,
2013-05-16 10:17:00,74.1,44.8,29.68,West,270,2.0,2.0,35,0.00,,,0.00,meteohub,2013-05-16 14:17:00,
2013-05-16 10:22:00,74.5,45.0,29.68,North,0,3.0,3.0,35,0.00,,,0.00,meteohub,2013-05-16 14:22:00,
2013-05-16 10:27:00,74.8,44.6,29.68,North,0,1.0,4.0,34,0.00,,,0.00,meteohub,2013-05-16 14:27:00,
2013-05-16 10:32:00,76.6,43.7,29.68,NNW,338,1.0,4.0,31,0.00,,,0.00,meteohub,2013-05-16 14:32:00,
2013-05-16 10:37:00,77.2,43.3,29.69,North,0,2.0,4.0,30,0.00,,,0.00,meteohub,2013-05-16 14:37:00,
2013-05-16 10:42:00,77.2,43.3,29.68,North,0,0.0,3.0,30,0.00,,,0.00,meteohub,2013-05-16 14:42:00,
2013-05-16 10:47:00,77.7,43.0,29.69,North,0,1.0,3.0,29,0.00,,,0.00,meteohub,2013-05-16 14:47:00,
2013-05-16 10:52:00,77.7,43.9,29.68,North,0,2.0,2.0,30,0.00,,,0.00,meteohub,2013-05-16 14:52:00,
2013-05-16 10:57:00,77.9,44.1,29.68,NE,45,2.0,2.0,30,0.00,,,0.00,meteohub,2013-05-16 14:57:00,
2013-05-16 11:02:00,78.4,44.4,29.68,NE,45,1.0,2.0,30,0.00,,,0.00,meteohub,2013-05-16 15:02:00,
2013-05-16 11:07:00,79.3,43.3,29.68,North,0,2.0,2.0,28,0.00,,,0.00,meteohub,2013-05-16 15:07:00,
2013-05-16 11:12:00,79.9,41.0,29.69,North,0,1.0,2.0,25,0.00,,,0.00,meteohub,2013-05-16 15:12:00,
2013-05-16 11:17:00,79.7,41.7,29.68,East,90,2.0,2.0,26,0.00,,,0.00,meteohub,2013-05-16 15:17:00,
2013-05-16 11:22:00,78.8,39.0,29.68,North,0,2.0,2.0,24,0.00,,,0.00,meteohub,2013-05-16 15:22:00,
2013-05-16 11:27:00,78.1,37.2,29.68,North,0,2.0,5.0,23,0.00,,,0.00,meteohub,2013-05-16 15:27:00,
2013-05-16 11:32:00,77.0,35.2,29.68,North,0,3.0,5.0,22,0.00,,,0.00,meteohub,2013-05-16 15:32:00,
2013-05-16 11:37:00,77.0,35.2,29.68,North,0,1.0,5.0,22,0.00,,,0.00,meteohub,2013-05-16 15:37:00,
2013-05-16 11:42:00,77.5,36.9,29.68,North,0,2.0,3.0,23,0.00,,,0.00,meteohub,2013-05-16 15:42:00,
2013-05-16 11:47:00,79.2,37.0,29.67,North,0,2.0,3.0,22,0.00,,,0.00,meteohub,2013-05-16 15:47:00,
2013-05-16 11:52:00,81.0,36.1,29.67,North,0,2.0,3.0,20,0.00,,,0.00,meteohub,2013-05-16 15:52:00,
2013-05-16 11:57:00,81.7,35.4,29.68,North,0,3.0,4.0,19,0.00,,,0.00,meteohub,2013-05-16 15:57:00,
2013-05-16 12:02:00,81.7,35.4,29.66,NW,315,1.0,4.0,19,0.00,,,0.00,meteohub,2013-05-16 16:02:00,
2013-05-16 12:07:00,82.6,41.0,29.66,North,0,1.0,4.0,23,0.00,,,0.00,meteohub,2013-05-16 16:07:00,
2013-05-16 12:12:00,81.5,35.2,29.66,North,0,2.0,3.0,19,0.00,,,0.00,meteohub,2013-05-16 16:12:00,
2013-05-16 12:17:00,80.1,35.4,29.66,North,0,2.0,3.0,20,0.00,,,0.00,meteohub,2013-05-16 16:17:00,
2013-05-16 12:22:00,79.3,34.7,29.66,North,0,2.0,3.0,20,0.00,,,0.00,meteohub,2013-05-16 16:22:00,
2013-05-16 12:27:00,78.8,34.3,29.66,NW,315,1.0,3.0,20,0.00,,,0.00,meteohub,2013-05-16 16:27:00,
2013-05-16 12:32:00,78.8,34.3,29.66,ENE,68,1.0,4.0,20,0.00,,,0.00,meteohub,2013-05-16 16:32:00,
2013-05-16 12:37:00,78.6,35.4,29.66,North,0,2.0,4.0,21,0.00,,,0.00,meteohub,2013-05-16 16:37:00,
2013-05-16 12:42:00,78.4,36.5,29.66,North,0,2.0,3.0,22,0.00,,,0.00,meteohub,2013-05-16 16:42:00,
2013-05-16 12:47:00,78.4,35.2,29.65,NW,315,2.0,3.0,21,0.00,,,0.00,meteohub,2013-05-16 16:47:00,
2013-05-16 12:52:00,78.3,35.1,29.65,North,0,3.0,3.0,21,0.00,,,0.00,meteohub,2013-05-16 16:52:00,
2013-05-16 12:57:00,78.3,35.1,29.65,North,0,1.0,4.0,21,0.00,,,0.00,meteohub,2013-05-16 16:57:00,
2013-05-16 13:02:00,78.4,35.2,29.65,West,270,2.0,4.0,21,0.00,,,0.00,meteohub,2013-05-16 17:02:00,
2013-05-16 13:07:00,78.4,35.2,29.65,NW,315,2.0,4.0,21,0.00,,,0.00,meteohub,2013-05-16 17:07:00,
2013-05-16 13:12:00,78.3,35.1,29.64,NW,315,4.0,4.0,21,0.00,,,0.00,meteohub,2013-05-16 17:12:00,
2013-05-16 13:17:00,78.4,35.2,29.64,NE,45,2.0,4.0,21,0.00,,,0.00,meteohub,2013-05-16 17:17:00,
2013-05-16 13:22:00,78.4,35.2,29.64,NW,315,0.0,4.0,21,0.00,,,0.00,meteohub,2013-05-16 17:22:00,
2013-05-16 13:27:00,78.6,35.4,29.64,North,0,2.0,4.0,21,0.00,,,0.00,meteohub,2013-05-16 17:27:00,
2013-05-16 13:32:00,78.8,34.3,29.64,North,0,2.0,4.0,20,0.00,,,0.00,meteohub,2013-05-16 17:32:00,
2013-05-16 13:37:00,78.8,34.3,29.64,North,0,2.0,4.0,20,0.00,,,0.00,meteohub,2013-05-16 17:37:00,
2013-05-16 13:42:00,78.8,34.3,29.63,NNW,338,3.0,4.0,20,0.00,,,0.00,meteohub,2013-05-16 17:42:00,
2013-05-16 13:47:00,78.6,35.4,29.64,North,0,2.0,4.0,21,0.00,,,0.00,meteohub,2013-05-16 17:47:00,
2013-05-16 13:52:00,78.8,34.3,29.64,North,0,2.0,3.0,20,0.00,,,0.00,meteohub,2013-05-16 17:52:00,
2013-05-16 13:57:00,79.0,34.5,29.63,West,270,2.0,3.0,20,0.00,,,0.00,meteohub,2013-05-16 17:57:00,
2013-05-16 14:02:00,79.0,34.5,29.63,North,0,2.0,3.0,20,0.00,,,0.00,meteohub,2013-05-16 18:02:00,
2013-05-16 14:07:00,79.0,34.5,29.63,South,180,2.0,4.0,20,0.00,,,0.00,meteohub,2013-05-16 18:07:00,
2013-05-16 14:12:00,79.2,34.7,29.63,NE,45,2.0,8.0,20,0.00,,,0.00,meteohub,2013-05-16 18:12:00,
2013-05-16 14:17:00,79.2,34.7,29.63,North,0,4.0,8.0,20,0.00,,,0.00,meteohub,2013-05-16 18:17:00,
2013-05-16 14:22:00,79.0,34.5,29.63,NE,45,2.0,8.0,20,0.00,,,0.00,meteohub,2013-05-16 18:22:00,
2013-05-16 14:27:00,79.0,34.5,29.63,North,0,2.0,4.0,20,0.00,,,0.00,meteohub,2013-05-16 18:27:00,
2013-05-16 14:32:00,79.0,34.5,29.63,North,0,2.0,4.0,20,0.00,,,0.00,meteohub,2013-05-16 18:32:00,
2013-05-16 14:37:00,79.2,33.4,29.62,North,0,2.0,4.0,19,0.00,,,0.00,meteohub,2013-05-16 18:37:00,
2013-05-16 14:42:00,79.2,33.4,29.63,North,0,3.0,4.0,19,0.00,,,0.00,meteohub,2013-05-16 18:42:00,
2013-05-16 14:47:00,79.2,33.4,29.62,North,0,3.0,4.0,19,0.00,,,0.00,meteohub,2013-05-16 18:47:00,
2013-05-16 14:52:00,79.3,34.7,29.63,NE,45,2.0,4.0,20,0.00,,,0.00,meteohub,2013-05-16 18:52:00,
2013-05-16 14:57:00,79.3,34.7,29.62,North,0,2.0,4.0,20,0.00,,,0.00,meteohub,2013-05-16 18:57:00,
2013-05-16 15:02:00,79.3,34.7,29.62,North,0,2.0,3.0,20,0.00,,,0.00,meteohub,2013-05-16 19:02:00,
2013-05-16 15:07:00,79.5,34.9,29.62,North,0,2.0,3.0,20,0.00,,,0.00,meteohub,2013-05-16 19:07:00,
2013-05-16 15:12:00,79.5,34.9,29.62,NE,45,2.0,3.0,20,0.00,,,0.00,meteohub,2013-05-16 19:12:00,
2013-05-16 15:17:00,79.3,34.7,29.63,North,0,1.0,4.0,20,0.00,,,0.00,meteohub,2013-05-16 19:17:00,
2013-05-16 15:22:00,79.3,34.7,29.62,North,0,2.0,4.0,20,0.00,,,0.00,meteohub,2013-05-16 19:22:00,
2013-05-16 15:27:00,79.5,34.9,29.61,NE,45,2.0,4.0,20,0.00,,,0.00,meteohub,2013-05-16 19:27:00,
2013-05-16 15:32:00,79.5,36.1,29.62,East,90,2.0,4.0,21,0.00,,,0.00,meteohub,2013-05-16 19:32:00,
2013-05-16 15:37:00,79.3,36.0,29.62,West,270,2.0,4.0,21,0.00,,,0.00,meteohub,2013-05-16 19:37:00,
2013-05-16 15:42:00,79.3,37.2,29.61,NW,315,3.0,5.0,22,0.00,,,0.00,meteohub,2013-05-16 19:42:00,
2013-05-16 15:47:00,79.5,36.1,29.62,NW,315,0.0,5.0,21,0.00,,,0.00,meteohub,2013-05-16 19:47:00,
2013-05-16 15:52:00,79.9,36.5,29.62,West,270,2.0,5.0,21,0.00,,,0.00,meteohub,2013-05-16 19:52:00,
2013-05-16 15:57:00,80.1,36.7,29.62,North,0,1.0,3.0,21,0.00,,,0.00,meteohub,2013-05-16 19:57:00,
2013-05-16 16:02:00,80.1,35.4,29.61,South,180,1.0,3.0,20,0.00,,,0.00,meteohub,2013-05-16 20:02:00,
2013-05-16 16:07:00,79.9,36.5,29.61,North,0,2.0,3.0,21,0.00,,,0.00,meteohub,2013-05-16 20:07:00,
2013-05-16 16:12:00,79.9,36.5,29.61,West,270,1.0,2.0,21,0.00,,,0.00,meteohub,2013-05-16 20:12:00,
2013-05-16 16:17:00,80.1,35.4,29.61,NW,315,2.0,4.0,20,0.00,,,0.00,meteohub,2013-05-16 20:17:00,
2013-05-16 16:22:00,80.2,35.6,29.61,NW,315,3.0,4.0,20,0.00,,,0.00,meteohub,2013-05-16 20:22:00,
2013-05-16 16:27:00,80.2,36.7,29.61,North,0,2.0,4.0,21,0.00,,,0.00,meteohub,2013-05-16 20:27:00,
2013-05-16 16:32:00,80.2,36.7,29.62,North,0,2.0,4.0,21,0.00,,,0.00,meteohub,2013-05-16 20:32:00,
2013-05-16 16:37:00,80.2,35.6,29.61,NE,45,1.0,3.0,20,0.00,,,0.00,meteohub,2013-05-16 20:37:00,
2013-05-16 16:42:00,80.1,35.4,29.62,North,0,2.0,3.0,20,0.00,,,0.00,meteohub,2013-05-16 20:42:00,
2013-05-16 16:47:00,79.9,35.2,29.62,NE,45,0.0,3.0,20,0.00,,,0.00,meteohub,2013-05-16 20:47:00,
2013-05-16 16:52:00,79.3,34.7,29.62,North,0,4.0,4.0,20,0.00,,,0.00,meteohub,2013-05-16 20:52:00,
2013-05-16 16:57:00,79.3,34.7,29.62,North,0,1.0,4.0,20,0.00,,,0.00,meteohub,2013-05-16 20:57:00,
2013-05-16 17:02:00,79.3,34.7,29.62,North,0,2.0,4.0,20,0.00,,,0.00,meteohub,2013-05-16 21:02:00,
2013-05-16 17:07:00,79.3,34.7,29.61,West,270,1.0,4.0,20,0.00,,,0.00,meteohub,2013-05-16 21:07:00,
2013-05-16 17:12:00,79.3,34.7,29.62,NW,315,2.0,4.0,20,0.00,,,0.00,meteohub,2013-05-16 21:12:00,
2013-05-16 17:17:00,79.5,34.9,29.62,North,0,3.0,4.0,20,0.00,,,0.00,meteohub,2013-05-16 21:17:00,
2013-05-16 17:22:00,79.5,34.9,29.62,North,0,3.0,4.0,20,0.00,,,0.00,meteohub,2013-05-16 21:22:00,
2013-05-16 17:27:00,79.7,35.1,29.61,North,0,2.0,4.0,20,0.00,,,0.00,meteohub,2013-05-16 21:27:00,
2013-05-16 17:32:00,79.5,34.9,29.62,North,0,1.0,4.0,20,0.00,,,0.00,meteohub,2013-05-16 21:32:00,
2013-05-16 17:37:00,79.3,36.0,29.62,North,0,1.0,4.0,21,0.00,,,0.00,meteohub,2013-05-16 21:37:00,
2013-05-16 17:42:00,79.0,35.8,29.62,NW,315,1.0,3.0,21,0.00,,,0.00,meteohub,2013-05-16 21:42:00,
2013-05-16 17:47:00,79.0,34.5,29.62,North,0,3.0,3.0,20,0.00,,,0.00,meteohub,2013-05-16 21:47:00,
2013-05-16 17:52:00,79.2,34.7,29.62,NE,45,1.0,3.0,20,0.00,,,0.00,meteohub,2013-05-16 21:52:00,
2013-05-16 17:57:00,78.8,34.3,29.62,NW,315,2.0,3.0,20,0.00,,,0.00,meteohub,2013-05-16 21:57:00,
2013-05-16 18:02:00,78.8,35.6,29.62,North,0,2.0,3.0,21,0.00,,,0.00,meteohub,2013-05-16 22:02:00,
2013-05-16 18:07:00,79.0,34.5,29.62,NE,45,2.0,2.0,20,0.00,,,0.00,meteohub,2013-05-16 22:07:00,
2013-05-16 18:12:00,78.8,34.3,29.62,North,0,2.0,5.0,20,0.00,,,0.00,meteohub,2013-05-16 22:12:00,
2013-05-16 18:17:00,78.6,35.4,29.62,North,0,2.0,5.0,21,0.00,,,0.00,meteohub,2013-05-16 22:17:00,
2013-05-16 18:22:00,78.4,35.2,29.62,North,0,2.0,5.0,21,0.00,,,0.00,meteohub,2013-05-16 22:22:00,
2013-05-16 18:27:00,78.3,35.1,29.62,North,0,2.0,5.0,21,0.00,,,0.00,meteohub,2013-05-16 22:27:00,
2013-05-16 18:32:00,78.1,34.9,29.62,South,180,1.0,2.0,21,0.00,,,0.00,meteohub,2013-05-16 22:32:00,
2013-05-16 18:37:00,77.5,36.9,29.63,North,0,1.0,2.0,23,0.00,,,0.00,meteohub,2013-05-16 22:37:00,
2013-05-16 18:42:00,77.2,36.5,29.63,NE,45,1.0,2.0,23,0.00,,,0.00,meteohub,2013-05-16 22:42:00,
2013-05-16 18:47:00,77.0,35.2,29.63,North,0,2.0,2.0,22,0.00,,,0.00,meteohub,2013-05-16 22:47:00,
2013-05-16 18:52:00,77.2,34.2,29.63,North,0,0.0,2.0,21,0.00,,,0.00,meteohub,2013-05-16 22:52:00,
2013-05-16 18:57:00,77.2,34.2,29.63,East,90,0.0,2.0,21,0.00,,,0.00,meteohub,2013-05-16 22:57:00,
2013-05-16 19:02:00,76.8,36.1,29.63,North,0,1.0,2.0,23,0.00,,,0.00,meteohub,2013-05-16 23:02:00,
2013-05-16 19:07:00,76.3,35.8,29.63,NE,45,1.0,2.0,23,0.00,,,0.00,meteohub,2013-05-16 23:07:00,
2013-05-16 19:12:00,76.1,35.6,29.64,North,0,0.0,2.0,23,0.00,,,0.00,meteohub,2013-05-16 23:12:00,
2013-05-16 19:17:00,75.4,37.0,29.64,NE,45,2.0,2.0,25,0.00,,,0.00,meteohub,2013-05-16 23:17:00,
2013-05-16 19:22:00,75.2,36.0,29.64,North,0,2.0,2.0,24,0.00,,,0.00,meteohub,2013-05-16 23:22:00,
2013-05-16 19:27:00,75.0,35.8,29.64,NE,45,1.0,2.0,24,0.00,,,0.00,meteohub,2013-05-16 23:27:00,
2013-05-16 19:32:00,75.0,36.9,29.65,East,90,2.0,2.0,25,0.00,,,0.00,meteohub,2013-05-16 23:32:00,
2013-05-16 19:37:00,74.7,36.5,29.64,North,0,1.0,2.0,25,0.00,,,0.00,meteohub,2013-05-16 23:37:00,
2013-05-16 19:42:00,74.3,36.1,29.65,North,0,0.0,2.0,25,0.00,,,0.00,meteohub,2013-05-16 23:42:00,
2013-05-16 19:47:00,73.9,36.9,29.66,North,0,0.0,2.0,26,0.00,,,0.00,meteohub,2013-05-16 23:47:00,
2013-05-16 19:52:00,73.2,37.2,29.66,North,0,0.0,1.0,27,0.00,,,0.00,meteohub,2013-05-16 23:52:00,
2013-05-16 19:57:00,72.9,37.8,29.66,North,0,0.0,0.0,28,0.00,,,0.00,meteohub,2013-05-16 23:57:00,
2013-05-16 20:02:00,72.3,38.3,29.66,South,180,0.0,0.0,29,0.00,,,0.00,meteohub,2013-05-17 00:02:00,
2013-05-16 20:07:00,71.8,37.8,29.66,South,180,0.0,0.0,29,0.00,,,0.00,meteohub,2013-05-17 00:07:00,
2013-05-16 20:12:00,71.2,38.3,29.67,South,180,0.0,0.0,30,0.00,,,0.00,meteohub,2013-05-17 00:12:00,
2013-05-16 20:17:00,70.9,38.7,29.66,South,180,0.0,0.0,31,0.00,,,0.00,meteohub,2013-05-17 00:17:00,
2013-05-16 20:22:00,70.3,38.3,29.67,South,180,0.0,0.0,31,0.00,,,0.00,meteohub,2013-05-17 00:22:00,
2013-05-16 20:27:00,69.8,37.8,29.67,South,180,0.0,0.0,31,0.00,,,0.00,meteohub,2013-05-17 00:27:00,
2013-05-16 20:32:00,69.3,38.8,29.68,South,180,0.0,0.0,33,0.00,,,0.00,meteohub,2013-05-17 00:32:00,
2013-05-16 20:37:00,68.7,39.2,29.68,South,180,0.0,0.0,34,0.00,,,0.00,meteohub,2013-05-17 00:37:00,
2013-05-16 20:42:00,68.2,39.6,29.68,South,180,0.0,0.0,35,0.00,,,0.00,meteohub,2013-05-17 00:42:00,
2013-05-16 20:47:00,67.6,40.5,29.69,South,180,0.0,0.0,37,0.00,,,0.00,meteohub,2013-05-17 00:47:00,
2013-05-16 20:52:00,67.1,40.6,29.69,NW,315,0.0,0.0,38,0.00,,,0.00,meteohub,2013-05-17 00:52:00,
2013-05-16 20:57:00,66.6,41.5,29.70,NW,315,0.0,0.0,40,0.00,,,0.00,meteohub,2013-05-17 00:57:00,
2013-05-16 21:02:00,66.2,41.7,29.71,NW,315,0.0,0.0,41,0.00,,,0.00,meteohub,2013-05-17 01:02:00,
2013-05-16 21:07:00,65.8,42.1,29.71,South,180,0.0,0.0,42,0.00,,,0.00,meteohub,2013-05-17 01:07:00,
2013-05-16 21:12:00,65.7,41.9,29.71,SE,135,0.0,0.0,42,0.00,,,0.00,meteohub,2013-05-17 01:12:00,
2013-05-16 21:17:00,65.8,42.1,29.71,NW,315,0.0,1.0,42,0.00,,,0.00,meteohub,2013-05-17 01:17:00,
2013-05-16 21:22:00,66.0,41.7,29.72,North,0,0.0,1.0,41,0.00,,,0.00,meteohub,2013-05-17 01:22:00,
2013-05-16 21:27:00,66.4,41.4,29.72,West,270,0.0,0.0,40,0.00,,,0.00,meteohub,2013-05-17 01:27:00,
2013-05-16 21:32:00,66.6,40.8,29.73,North,0,0.0,0.0,39,0.00,,,0.00,meteohub,2013-05-17 01:32:00,
2013-05-16 21:37:00,66.6,40.1,29.73,NW,315,0.0,0.0,38,0.00,,,0.00,meteohub,2013-05-17 01:37:00,
2013-05-16 21:42:00,66.6,40.8,29.73,NW,315,0.0,0.0,39,0.00,,,0.00,meteohub,2013-05-17 01:42:00,
2013-05-16 21:47:00,66.2,39.9,29.73,SE,135,0.0,0.0,38,0.00,,,0.00,meteohub,2013-05-17 01:47:00,
2013-05-16 21:52:00,66.2,39.9,29.73,West,270,0.0,0.0,38,0.00,,,0.00,meteohub,2013-05-17 01:52:00,
2013-05-16 21:57:00,66.0,39.0,29.74,West,270,0.0,0.0,37,0.00,,,0.00,meteohub,2013-05-17 01:57:00,
2013-05-16 22:02:00,65.8,38.8,29.74,North,0,0.0,0.0,37,0.00,,,0.00,meteohub,2013-05-17 02:02:00,
2013-05-16 22:07:00,65.5,38.5,29.73,West,270,0.0,0.0,37,0.00,,,0.00,meteohub,2013-05-17 02:07:00,
2013-05-16 22:12:00,65.3,38.3,29.74,NW,315,0.0,0.0,37,0.00,,,0.00,meteohub,2013-05-17 02:12:00,
2013-05-16 22:17:00,65.1,38.1,29.74,NW,315,0.0,0.0,37,0.00,,,0.00,meteohub,2013-05-17 02:17:00,
2013-05-16 22:22:00,65.1,38.1,29.74,NW,315,0.0,0.0,37,0.00,,,0.00,meteohub,2013-05-17 02:22:00,
2013-05-16 22:27:00,64.9,38.7,29.74,West,270,0.0,0.0,38,0.00,,,0.00,meteohub,2013-05-17 02:27:00,
2013-05-16 22:32:00,64.6,38.5,29.74,West,270,0.0,0.0,38,0.00,,,0.00,meteohub,2013-05-17 02:32:00,
2013-05-16 22:37:00,64.2,38.1,29.75,West,270,0.0,0.0,38,0.00,,,0.00,meteohub,2013-05-17 02:37:00,
2013-05-16 22:42:00,63.9,37.8,29.75,West,270,0.0,0.0,38,0.00,,,0.00,meteohub,2013-05-17 02:42:00,
2013-05-16 22:47:00,63.5,37.4,29.75,West,270,0.0,0.0,38,0.00,,,0.00,meteohub,2013-05-17 02:47:00,
2013-05-16 22:52:00,63.0,37.0,29.75,West,270,0.0,0.0,38,0.00,,,0.00,meteohub,2013-05-17 02:52:00,
2013-05-16 22:57:00,62.6,36.7,29.76,West,270,0.0,0.0,38,0.00,,,0.00,meteohub,2013-05-17 02:57:00,
2013-05-16 23:02:00,62.2,37.0,29.76,West,270,0.0,0.0,39,0.00,,,0.00,meteohub,2013-05-17 03:02:00,
2013-05-16 23:07:00,61.9,37.2,29.76,West,270,0.0,0.0,40,0.00,,,0.00,meteohub,2013-05-17 03:07:00,
2013-05-16 23:12:00,61.3,37.4,29.75,West,270,0.0,0.0,41,0.00,,,0.00,meteohub,2013-05-17 03:12:00,
2013-05-16 23:17:00,61.0,37.0,29.76,West,270,0.0,0.0,41,0.00,,,0.00,meteohub,2013-05-17 03:17:00,
2013-05-16 23:22:00,61.0,37.0,29.76,West,270,0.0,0.0,41,0.00,,,0.00,meteohub,2013-05-17 03:22:00,
2013-05-16 23:27:00,60.4,37.8,29.77,West,270,0.0,0.0,43,0.00,,,0.00,meteohub,2013-05-17 03:27:00,
2013-05-16 23:32:00,60.3,38.3,29.77,West,270,0.0,0.0,44,0.00,,,0.00,meteohub,2013-05-17 03:32:00,
2013-05-16 23:37:00,59.9,37.9,29.77,West,270,0.0,0.0,44,0.00,,,0.00,meteohub,2013-05-17 03:37:00,
2013-05-16 23:42:00,59.7,37.8,29.77,West,270,0.0,0.0,44,0.00,,,0.00,meteohub,2013-05-17 03:42:00,
2013-05-16 23:47:00,59.5,38.1,29.78,West,270,0.0,0.0,45,0.00,,,0.00,meteohub,2013-05-17 03:47:00,
2013-05-16 23:52:00,59.2,38.5,29.78,West,270,0.0,0.0,46,0.00,,,0.00,meteohub,2013-05-17 03:52:00,
2013-05-16 23:57:00,59.0,38.8,29.78,West,270,0.0,0.0,47,0.00,,,0.00,meteohub,2013-05-17 03:57:00,